sensor_id;sensor_type;location;lat;lon;timestamp;temperature;humidity
23323;DHT22;11833;52.554;13.554;2023-01-08T01:00:55;8.10;99.90
23323;DHT22;11833;52.554;13.554;2023-01-08T01:03:21;8.10;99.90
23323;DHT22;11833;52.554;13.554;2023-01-08T01:05:47;8.10;99.90
23323;DHT22;11833;52.554;13.554;2023-01-08T01:08:14;8.10;99.90
23323;DHT22;11833;52.554;13.554;2023-01-08T01:10:40;8.20;99.90
23323;DHT22;11833;52.554;13.554;2023-01-08T01:13:06;7.90;99.90
23323;DHT22;11833;52.554;13.554;2023-01-08T01:15:31;8.10;99.90
23323;DHT22;11833;52.554;13.554;2023-01-08T01:17:57;8.10;99.90
23323;DHT22;11833;52.554;13.554;2023-01-08T01:20:23;8.10;99.90
23323;DHT22;11833;52.554;13.554;2023-01-08T01:22:49;8.10;99.90
23323;DHT22;11833;52.554;13.554;2023-01-08T01:25:16;7.90;99.90
23323;DHT22;11833;52.554;13.554;2023-01-08T01:27:42;7.90;99.90
23323;DHT22;11833;52.554;13.554;2023-01-08T01:30:08;8.00;99.90
23323;DHT22;11833;52.554;13.554;2023-01-08T01:32:34;7.80;99.90
23323;DHT22;11833;52.554;13.554;2023-01-08T01:35:00;7.90;99.90
23323;DHT22;11833;52.554;13.554;2023-01-08T01:37:26;7.90;99.90
23323;DHT22;11833;52.554;13.554;2023-01-08T01:39:52;7.90;99.90
23323;DHT22;11833;52.554;13.554;2023-01-08T01:42:19;7.70;99.90
23323;DHT22;11833;52.554;13.554;2023-01-08T01:45:14;7.80;99.90
23323;DHT22;11833;52.554;13.554;2023-01-08T01:47:41;7.70;99.90
23323;DHT22;11833;52.554;13.554;2023-01-08T01:50:29;7.90;99.90
23323;DHT22;11833;52.554;13.554;2023-01-08T01:55:32;7.70;99.90
23323;DHT22;11833;52.554;13.554;2023-01-08T01:58:16;7.60;99.90
23323;DHT22;11833;52.554;13.554;2023-01-08T02:00:46;7.70;99.90
23323;DHT22;11833;52.554;13.554;2023-01-08T02:03:14;7.70;99.90
23323;DHT22;11833;52.554;13.554;2023-01-08T02:08:41;7.60;99.90
23323;DHT22;11833;52.554;13.554;2023-01-08T02:18:01;7.20;99.90
23323;DHT22;11833;52.554;13.554;2023-01-08T02:23:09;7.20;99.90
23323;DHT22;11833;52.554;13.554;2023-01-08T02:28:46;7.20;99.90
23323;DHT22;11833;52.554;13.554;2023-01-08T02:31:15;7.10;99.90
23323;DHT22;11833;52.554;13.554;2023-01-08T02:33:42;7.00;99.90
23323;DHT22;11833;52.554;13.554;2023-01-08T02:42:20;7.10;99.90
23323;DHT22;11833;52.554;13.554;2023-01-08T02:48:07;7.10;99.90
23323;DHT22;11833;52.554;13.554;2023-01-08T02:50:45;7.20;99.90
23323;DHT22;11833;52.554;13.554;2023-01-08T02:53:19;7.10;99.90
23323;DHT22;11833;52.554;13.554;2023-01-08T02:55:58;7.10;99.90
23323;DHT22;11833;52.554;13.554;2023-01-08T02:58:29;7.00;99.90
23323;DHT22;11833;52.554;13.554;2023-01-08T03:00:58;7.00;99.90
23323;DHT22;11833;52.554;13.554;2023-01-08T03:03:27;6.90;99.90
23323;DHT22;11833;52.554;13.554;2023-01-08T03:05:58;6.80;99.90
23323;DHT22;11833;52.554;13.554;2023-01-08T03:08:27;6.60;99.90
23323;DHT22;11833;52.554;13.554;2023-01-08T03:11:02;6.80;99.90
23323;DHT22;11833;52.554;13.554;2023-01-08T03:16:23;6.60;99.90
23323;DHT22;11833;52.554;13.554;2023-01-08T03:19:03;6.60;99.90
23323;DHT22;11833;52.554;13.554;2023-01-08T03:21:35;6.50;99.90
23323;DHT22;11833;52.554;13.554;2023-01-08T03:24:03;6.60;99.90
23323;DHT22;11833;52.554;13.554;2023-01-08T03:26:31;6.60;99.90
23323;DHT22;11833;52.554;13.554;2023-01-08T03:28:58;6.60;99.90
23323;DHT22;11833;52.554;13.554;2023-01-08T03:31:26;6.70;99.90
23323;DHT22;11833;52.554;13.554;2023-01-08T03:33:54;6.70;99.90
23323;DHT22;11833;52.554;13.554;2023-01-08T03:36:23;6.90;99.90
23323;DHT22;11833;52.554;13.554;2023-01-08T03:39:48;6.80;99.90
23323;DHT22;11833;52.554;13.554;2023-01-08T03:41:58;6.90;99.90
23323;DHT22;11833;52.554;13.554;2023-01-08T03:44:25;6.70;99.90
23323;DHT22;11833;52.554;13.554;2023-01-08T03:46:53;6.80;99.90
23323;DHT22;11833;52.554;13.554;2023-01-08T03:49:21;6.70;99.90
23323;DHT22;11833;52.554;13.554;2023-01-08T03:51:47;6.60;99.90
23323;DHT22;11833;52.554;13.554;2023-01-08T03:54:20;6.60;99.90
23323;DHT22;11833;52.554;13.554;2023-01-08T03:56:49;6.60;99.90
23323;DHT22;11833;52.554;13.554;2023-01-08T03:59:15;6.60;99.90
23323;DHT22;11833;52.554;13.554;2023-01-08T04:01:41;6.60;99.90
23323;DHT22;11833;52.554;13.554;2023-01-08T04:04:09;6.70;99.90
23323;DHT22;11833;52.554;13.554;2023-01-08T04:06:35;6.70;99.90
23323;DHT22;11833;52.554;13.554;2023-01-08T04:09:01;6.80;99.90
23323;DHT22;11833;52.554;13.554;2023-01-08T04:11:27;6.90;99.90
23323;DHT22;11833;52.554;13.554;2023-01-08T04:13:53;6.50;99.90
23323;DHT22;11833;52.554;13.554;2023-01-08T04:16:19;6.50;99.90
23323;DHT22;11833;52.554;13.554;2023-01-08T04:18:44;6.50;99.90
23323;DHT22;11833;52.554;13.554;2023-01-08T04:21:10;6.40;99.90
23323;DHT22;11833;52.554;13.554;2023-01-08T04:23:36;6.60;99.90
23323;DHT22;11833;52.554;13.554;2023-01-08T04:26:05;6.60;99.90
23323;DHT22;11833;52.554;13.554;2023-01-08T04:28:32;6.50;99.90
23323;DHT22;11833;52.554;13.554;2023-01-08T04:30:58;6.60;99.90
23323;DHT22;11833;52.554;13.554;2023-01-08T04:33:24;6.50;99.90
23323;DHT22;11833;52.554;13.554;2023-01-08T04:35:50;6.50;99.90
23323;DHT22;11833;52.554;13.554;2023-01-08T04:38:16;6.60;99.90
23323;DHT22;11833;52.554;13.554;2023-01-08T04:40:42;6.40;99.90
23323;DHT22;11833;52.554;13.554;2023-01-08T04:43:08;6.40;99.90
23323;DHT22;11833;52.554;13.554;2023-01-08T04:45:34;6.50;99.90
23323;DHT22;11833;52.554;13.554;2023-01-08T04:48:00;6.40;99.90
23323;DHT22;11833;52.554;13.554;2023-01-08T04:50:26;6.40;99.90
23323;DHT22;11833;52.554;13.554;2023-01-08T04:52:52;6.50;99.90
23323;DHT22;11833;52.554;13.554;2023-01-08T04:55:18;6.40;99.90
23323;DHT22;11833;52.554;13.554;2023-01-08T04:57:44;6.20;99.90
23323;DHT22;11833;52.554;13.554;2023-01-08T05:00:10;6.40;99.90
23323;DHT22;11833;52.554;13.554;2023-01-08T05:02:36;6.40;99.90
23323;DHT22;11833;52.554;13.554;2023-01-08T05:05:04;6.30;99.90
23323;DHT22;11833;52.554;13.554;2023-01-08T05:07:30;6.50;99.90
23323;DHT22;11833;52.554;13.554;2023-01-08T05:09:56;6.60;99.90
23323;DHT22;11833;52.554;13.554;2023-01-08T05:12:21;6.60;99.90
23323;DHT22;11833;52.554;13.554;2023-01-08T05:14:47;6.50;99.90
23323;DHT22;11833;52.554;13.554;2023-01-08T05:17:13;6.80;99.90
23323;DHT22;11833;52.554;13.554;2023-01-08T05:19:38;6.70;99.90
23323;DHT22;11833;52.554;13.554;2023-01-08T05:22:04;6.60;99.90
23323;DHT22;11833;52.554;13.554;2023-01-08T05:24:30;6.70;99.90
23323;DHT22;11833;52.554;13.554;2023-01-08T05:26:55;6.70;99.90
23323;DHT22;11833;52.554;13.554;2023-01-08T05:29:21;6.40;99.90
23323;DHT22;11833;52.554;13.554;2023-01-08T05:31:47;6.70;99.90
23323;DHT22;11833;52.554;13.554;2023-01-08T05:34:13;6.50;99.90
23323;DHT22;11833;52.554;13.554;2023-01-08T05:36:38;6.60;99.90
23323;DHT22;11833;52.554;13.554;2023-01-08T05:39:04;6.60;99.90
23323;DHT22;11833;52.554;13.554;2023-01-08T05:41:30;6.60;99.90
23323;DHT22;11833;52.554;13.554;2023-01-08T05:43:56;6.60;99.90
23323;DHT22;11833;52.554;13.554;2023-01-08T05:46:21;6.70;99.90
23323;DHT22;11833;52.554;13.554;2023-01-08T05:48:47;6.70;99.90
23323;DHT22;11833;52.554;13.554;2023-01-08T05:51:13;6.70;99.90
23323;DHT22;11833;52.554;13.554;2023-01-08T05:53:39;6.60;99.90
23323;DHT22;11833;52.554;13.554;2023-01-08T05:56:07;6.70;99.90
23323;DHT22;11833;52.554;13.554;2023-01-08T05:58:34;6.80;99.90
23323;DHT22;11833;52.554;13.554;2023-01-08T06:03:30;6.90;99.90
23323;DHT22;11833;52.554;13.554;2023-01-08T06:06:00;6.90;99.90
23323;DHT22;11833;52.554;13.554;2023-01-08T06:08:27;6.90;99.90
23323;DHT22;11833;52.554;13.554;2023-01-08T06:10:54;6.70;99.90
23323;DHT22;11833;52.554;13.554;2023-01-08T06:13:22;6.80;99.90
23323;DHT22;11833;52.554;13.554;2023-01-08T06:15:48;6.70;99.90
23323;DHT22;11833;52.554;13.554;2023-01-08T06:18:14;7.00;99.90
23323;DHT22;11833;52.554;13.554;2023-01-08T06:20:40;7.00;99.90
23323;DHT22;11833;52.554;13.554;2023-01-08T06:23:05;7.00;99.90
23323;DHT22;11833;52.554;13.554;2023-01-08T06:25:33;7.00;99.90
23323;DHT22;11833;52.554;13.554;2023-01-08T06:27:58;7.00;99.90
23323;DHT22;11833;52.554;13.554;2023-01-08T06:30:24;6.90;99.90
23323;DHT22;11833;52.554;13.554;2023-01-08T06:32:55;6.90;99.90
23323;DHT22;11833;52.554;13.554;2023-01-08T06:35:21;6.90;99.90
23323;DHT22;11833;52.554;13.554;2023-01-08T06:37:47;6.90;99.90
23323;DHT22;11833;52.554;13.554;2023-01-08T06:40:12;6.90;99.90
23323;DHT22;11833;52.554;13.554;2023-01-08T06:42:38;7.00;99.90
23323;DHT22;11833;52.554;13.554;2023-01-08T06:45:05;6.90;99.90
23323;DHT22;11833;52.554;13.554;2023-01-08T06:47:32;7.00;99.90
23323;DHT22;11833;52.554;13.554;2023-01-08T06:49:58;7.00;99.90
23323;DHT22;11833;52.554;13.554;2023-01-08T06:52:24;6.90;99.90
23323;DHT22;11833;52.554;13.554;2023-01-08T06:54:50;6.90;99.90
23323;DHT22;11833;52.554;13.554;2023-01-08T06:57:16;6.90;99.90
23323;DHT22;11833;52.554;13.554;2023-01-08T06:59:41;6.90;99.90
23323;DHT22;11833;52.554;13.554;2023-01-08T07:02:12;6.90;99.90
23323;DHT22;11833;52.554;13.554;2023-01-08T07:04:38;7.00;99.90
23323;DHT22;11833;52.554;13.554;2023-01-08T07:07:04;6.90;99.90
23323;DHT22;11833;52.554;13.554;2023-01-08T07:09:30;6.80;99.90
23323;DHT22;11833;52.554;13.554;2023-01-08T07:11:58;6.90;99.90
23323;DHT22;11833;52.554;13.554;2023-01-08T07:14:23;6.90;99.90
23323;DHT22;11833;52.554;13.554;2023-01-08T07:16:49;6.90;99.90
23323;DHT22;11833;52.554;13.554;2023-01-08T07:19:15;6.90;99.90
23323;DHT22;11833;52.554;13.554;2023-01-08T07:21:41;7.00;99.90
23323;DHT22;11833;52.554;13.554;2023-01-08T07:24:06;7.00;99.90
23323;DHT22;11833;52.554;13.554;2023-01-08T07:26:33;7.10;99.90
23323;DHT22;11833;52.554;13.554;2023-01-08T07:28:59;7.00;99.90
23323;DHT22;11833;52.554;13.554;2023-01-08T07:31:24;7.00;99.90
23323;DHT22;11833;52.554;13.554;2023-01-08T07:33:50;7.00;99.90
23323;DHT22;11833;52.554;13.554;2023-01-08T07:36:16;7.10;99.90
23323;DHT22;11833;52.554;13.554;2023-01-08T07:38:47;7.00;99.90
23323;DHT22;11833;52.554;13.554;2023-01-08T07:41:14;7.10;99.90
23323;DHT22;11833;52.554;13.554;2023-01-08T07:43:40;7.20;99.90
23323;DHT22;11833;52.554;13.554;2023-01-08T07:46:06;7.20;99.90
23323;DHT22;11833;52.554;13.554;2023-01-08T07:48:32;7.40;99.90
23323;DHT22;11833;52.554;13.554;2023-01-08T07:51:05;7.40;99.90
23323;DHT22;11833;52.554;13.554;2023-01-08T07:53:32;7.30;99.90
23323;DHT22;11833;52.554;13.554;2023-01-08T07:56:04;7.20;99.90
23323;DHT22;11833;52.554;13.554;2023-01-08T07:58:31;7.40;99.90
23323;DHT22;11833;52.554;13.554;2023-01-08T08:00:58;7.50;99.90
23323;DHT22;11833;52.554;13.554;2023-01-08T08:03:23;7.40;99.90
23323;DHT22;11833;52.554;13.554;2023-01-08T08:05:50;7.50;99.90
23323;DHT22;11833;52.554;13.554;2023-01-08T08:08:16;7.40;99.90
23323;DHT22;11833;52.554;13.554;2023-01-08T08:10:42;7.40;99.90
23323;DHT22;11833;52.554;13.554;2023-01-08T08:13:09;7.50;99.90
23323;DHT22;11833;52.554;13.554;2023-01-08T08:15:36;7.50;99.90
23323;DHT22;11833;52.554;13.554;2023-01-08T08:18:04;7.70;99.90
23323;DHT22;11833;52.554;13.554;2023-01-08T08:20:30;7.70;99.90
23323;DHT22;11833;52.554;13.554;2023-01-08T08:23:01;7.80;99.90
23323;DHT22;11833;52.554;13.554;2023-01-08T08:25:31;7.90;99.90
23323;DHT22;11833;52.554;13.554;2023-01-08T08:27:58;7.70;99.90
23323;DHT22;11833;52.554;13.554;2023-01-08T08:30:25;7.70;99.90
23323;DHT22;11833;52.554;13.554;2023-01-08T08:32:52;7.50;99.90
23323;DHT22;11833;52.554;13.554;2023-01-08T08:35:19;7.50;99.90
23323;DHT22;11833;52.554;13.554;2023-01-08T08:37:45;7.70;99.90
23323;DHT22;11833;52.554;13.554;2023-01-08T08:40:10;7.70;99.90
23323;DHT22;11833;52.554;13.554;2023-01-08T08:42:36;7.60;99.90
23323;DHT22;11833;52.554;13.554;2023-01-08T08:45:02;7.50;99.90
23323;DHT22;11833;52.554;13.554;2023-01-08T08:47:28;7.70;99.90
23323;DHT22;11833;52.554;13.554;2023-01-08T08:49:54;7.60;99.90
23323;DHT22;11833;52.554;13.554;2023-01-08T08:52:20;7.70;99.90
23323;DHT22;11833;52.554;13.554;2023-01-08T08:54:45;7.70;99.90
23323;DHT22;11833;52.554;13.554;2023-01-08T08:57:11;7.80;99.90
23323;DHT22;11833;52.554;13.554;2023-01-08T08:59:37;7.80;99.90
23323;DHT22;11833;52.554;13.554;2023-01-08T09:02:03;7.70;99.90
23323;DHT22;11833;52.554;13.554;2023-01-08T09:04:31;7.60;99.90
23323;DHT22;11833;52.554;13.554;2023-01-08T09:06:58;7.60;99.90
23323;DHT22;11833;52.554;13.554;2023-01-08T09:09:25;7.60;99.90
23323;DHT22;11833;52.554;13.554;2023-01-08T09:11:52;7.70;99.90
23323;DHT22;11833;52.554;13.554;2023-01-08T09:14:18;7.70;99.90
23323;DHT22;11833;52.554;13.554;2023-01-08T09:16:44;7.70;99.90
23323;DHT22;11833;52.554;13.554;2023-01-08T09:19:10;7.70;99.90
23323;DHT22;11833;52.554;13.554;2023-01-08T09:21:36;7.70;99.90
23323;DHT22;11833;52.554;13.554;2023-01-08T09:24:02;7.90;99.90
23323;DHT22;11833;52.554;13.554;2023-01-08T09:26:28;7.70;99.90
23323;DHT22;11833;52.554;13.554;2023-01-08T09:28:57;7.80;99.90
23323;DHT22;11833;52.554;13.554;2023-01-08T09:31:24;7.90;99.90
23323;DHT22;11833;52.554;13.554;2023-01-08T09:33:50;7.80;99.90
23323;DHT22;11833;52.554;13.554;2023-01-08T09:36:16;8.10;99.90
23323;DHT22;11833;52.554;13.554;2023-01-08T09:38:43;8.50;99.90
23323;DHT22;11833;52.554;13.554;2023-01-08T09:41:20;8.70;99.90
23323;DHT22;11833;52.554;13.554;2023-01-08T09:43:50;8.40;99.90
23323;DHT22;11833;52.554;13.554;2023-01-08T09:46:18;8.40;99.90
23323;DHT22;11833;52.554;13.554;2023-01-08T09:48:47;8.40;99.90
23323;DHT22;11833;52.554;13.554;2023-01-08T09:51:15;8.80;99.90
23323;DHT22;11833;52.554;13.554;2023-01-08T09:53:43;8.40;99.90
23323;DHT22;11833;52.554;13.554;2023-01-08T09:56:15;8.30;99.90
23323;DHT22;11833;52.554;13.554;2023-01-08T09:58:55;8.40;99.90
23323;DHT22;11833;52.554;13.554;2023-01-08T10:01:26;8.50;99.90
23323;DHT22;11833;52.554;13.554;2023-01-08T10:04:17;8.40;99.90
23323;DHT22;11833;52.554;13.554;2023-01-08T10:07:10;8.60;99.90
23323;DHT22;11833;52.554;13.554;2023-01-08T10:09:47;8.70;99.90
23323;DHT22;11833;52.554;13.554;2023-01-08T10:12:42;8.60;99.90
23323;DHT22;11833;52.554;13.554;2023-01-08T10:15:13;9.10;99.90
23323;DHT22;11833;52.554;13.554;2023-01-08T10:18:04;9.00;99.90
23323;DHT22;11833;52.554;13.554;2023-01-08T10:20:32;8.50;99.90
23323;DHT22;11833;52.554;13.554;2023-01-08T10:26:00;8.50;99.90
23323;DHT22;11833;52.554;13.554;2023-01-08T10:28:29;8.80;99.90
23323;DHT22;11833;52.554;13.554;2023-01-08T10:31:08;8.60;99.90
23323;DHT22;11833;52.554;13.554;2023-01-08T10:33:49;8.80;99.90
23323;DHT22;11833;52.554;13.554;2023-01-08T10:36:17;8.80;99.90
23323;DHT22;11833;52.554;13.554;2023-01-08T10:38:53;8.70;99.90
23323;DHT22;11833;52.554;13.554;2023-01-08T10:41:21;8.80;99.90
23323;DHT22;11833;52.554;13.554;2023-01-08T10:48:52;8.40;99.90
23323;DHT22;11833;52.554;13.554;2023-01-08T10:51:23;8.30;99.90
23323;DHT22;11833;52.554;13.554;2023-01-08T10:53:51;8.20;99.90
23323;DHT22;11833;52.554;13.554;2023-01-08T10:56:22;8.10;99.90
23323;DHT22;11833;52.554;13.554;2023-01-08T10:58:48;8.10;99.90
23323;DHT22;11833;52.554;13.554;2023-01-08T11:01:22;8.30;99.90
23323;DHT22;11833;52.554;13.554;2023-01-08T11:04:04;8.20;99.90
23323;DHT22;11833;52.554;13.554;2023-01-08T11:06:42;8.20;99.90
23323;DHT22;11833;52.554;13.554;2023-01-08T11:09:25;8.10;99.90
23323;DHT22;11833;52.554;13.554;2023-01-08T11:11:54;8.00;99.90
23323;DHT22;11833;52.554;13.554;2023-01-08T11:14:33;7.80;99.90
23323;DHT22;11833;52.554;13.554;2023-01-08T11:17:00;7.90;99.90
23323;DHT22;11833;52.554;13.554;2023-01-08T11:19:34;7.90;99.90
23323;DHT22;11833;52.554;13.554;2023-01-08T11:22:18;7.90;99.90
23323;DHT22;11833;52.554;13.554;2023-01-08T11:24:49;8.00;99.90
23323;DHT22;11833;52.554;13.554;2023-01-08T11:27:27;8.00;99.90
23323;DHT22;11833;52.554;13.554;2023-01-08T11:32:59;8.10;99.90
23323;DHT22;11833;52.554;13.554;2023-01-08T11:35:39;8.10;99.90
23323;DHT22;11833;52.554;13.554;2023-01-08T11:38:11;8.10;99.90
23323;DHT22;11833;52.554;13.554;2023-01-08T11:49:27;8.20;99.90
23323;DHT22;11833;52.554;13.554;2023-01-08T12:03:53;8.50;99.90
23323;DHT22;11833;52.554;13.554;2023-01-08T12:10:02;8.50;99.90
23323;DHT22;11833;52.554;13.554;2023-01-08T12:18:23;8.50;99.90
23323;DHT22;11833;52.554;13.554;2023-01-08T12:21:17;8.70;99.90
23323;DHT22;11833;52.554;13.554;2023-01-08T12:32:41;8.70;99.90
23323;DHT22;11833;52.554;13.554;2023-01-08T12:35:16;8.70;99.90
23323;DHT22;11833;52.554;13.554;2023-01-08T12:37:55;8.60;99.90
23323;DHT22;11833;52.554;13.554;2023-01-08T12:43:00;8.80;99.90
23323;DHT22;11833;52.554;13.554;2023-01-08T12:45:35;8.80;99.90
23323;DHT22;11833;52.554;13.554;2023-01-08T12:48:19;8.80;99.90
23323;DHT22;11833;52.554;13.554;2023-01-08T12:51:12;8.90;99.90
23323;DHT22;11833;52.554;13.554;2023-01-08T12:57:01;8.90;99.90
23323;DHT22;11833;52.554;13.554;2023-01-08T13:02:56;8.90;99.90
23323;DHT22;11833;52.554;13.554;2023-01-08T13:07:54;8.80;99.90
23323;DHT22;11833;52.554;13.554;2023-01-08T13:12:57;8.90;99.90
23323;DHT22;11833;52.554;13.554;2023-01-08T13:15:27;8.90;99.90
23323;DHT22;11833;52.554;13.554;2023-01-08T13:17:57;8.90;99.90
23323;DHT22;11833;52.554;13.554;2023-01-08T13:20:58;9.00;99.90
23323;DHT22;11833;52.554;13.554;2023-01-08T13:23:27;8.90;99.90
23323;DHT22;11833;52.554;13.554;2023-01-08T13:25:56;9.00;99.90
23323;DHT22;11833;52.554;13.554;2023-01-08T13:28:42;8.80;99.90
23323;DHT22;11833;52.554;13.554;2023-01-08T13:33:50;8.70;99.90
23323;DHT22;11833;52.554;13.554;2023-01-08T13:36:22;8.80;99.90
23323;DHT22;11833;52.554;13.554;2023-01-08T13:41:56;8.80;99.90
23323;DHT22;11833;52.554;13.554;2023-01-08T13:44:28;8.70;99.90
23323;DHT22;11833;52.554;13.554;2023-01-08T13:46:57;8.60;99.90
23323;DHT22;11833;52.554;13.554;2023-01-08T13:49:26;8.60;99.90
23323;DHT22;11833;52.554;13.554;2023-01-08T13:51:55;8.50;99.90
23323;DHT22;11833;52.554;13.554;2023-01-08T13:54:31;8.40;99.90
23323;DHT22;11833;52.554;13.554;2023-01-08T13:57:26;8.40;99.90
23323;DHT22;11833;52.554;13.554;2023-01-08T13:59:59;8.20;99.90
23323;DHT22;11833;52.554;13.554;2023-01-08T14:02:26;8.20;99.90
23323;DHT22;11833;52.554;13.554;2023-01-08T14:04:54;8.20;99.90
23323;DHT22;11833;52.554;13.554;2023-01-08T14:07:20;8.20;99.90
23323;DHT22;11833;52.554;13.554;2023-01-08T14:09:48;8.10;99.90
23323;DHT22;11833;52.554;13.554;2023-01-08T14:12:17;8.10;99.90
23323;DHT22;11833;52.554;13.554;2023-01-08T14:14:53;8.10;99.90
23323;DHT22;11833;52.554;13.554;2023-01-08T14:17:24;8.20;99.90
23323;DHT22;11833;52.554;13.554;2023-01-08T14:19:54;8.10;99.90
23323;DHT22;11833;52.554;13.554;2023-01-08T14:22:25;8.10;99.90
23323;DHT22;11833;52.554;13.554;2023-01-08T14:24:56;8.10;99.90
23323;DHT22;11833;52.554;13.554;2023-01-08T14:27:28;8.10;99.90
23323;DHT22;11833;52.554;13.554;2023-01-08T14:29:55;8.00;99.90
23323;DHT22;11833;52.554;13.554;2023-01-08T14:32:24;8.00;99.90
23323;DHT22;11833;52.554;13.554;2023-01-08T14:34:52;8.10;99.90
23323;DHT22;11833;52.554;13.554;2023-01-08T14:37:19;8.10;99.90
23323;DHT22;11833;52.554;13.554;2023-01-08T14:39:46;8.10;99.90
23323;DHT22;11833;52.554;13.554;2023-01-08T14:42:22;8.00;99.90
23323;DHT22;11833;52.554;13.554;2023-01-08T14:45:26;8.00;99.90
23323;DHT22;11833;52.554;13.554;2023-01-08T14:48:00;8.00;99.90
23323;DHT22;11833;52.554;13.554;2023-01-08T14:50:38;8.00;99.90
23323;DHT22;11833;52.554;13.554;2023-01-08T14:55:47;8.00;99.90
23323;DHT22;11833;52.554;13.554;2023-01-08T14:58:21;8.10;99.90
23323;DHT22;11833;52.554;13.554;2023-01-08T15:00:53;8.10;99.90
23323;DHT22;11833;52.554;13.554;2023-01-08T15:03:36;7.90;99.90
23323;DHT22;11833;52.554;13.554;2023-01-08T15:06:04;8.00;99.90
23323;DHT22;11833;52.554;13.554;2023-01-08T15:08:34;8.00;99.90
23323;DHT22;11833;52.554;13.554;2023-01-08T15:11:05;7.90;99.90
23323;DHT22;11833;52.554;13.554;2023-01-08T15:13:40;7.80;99.90
23323;DHT22;11833;52.554;13.554;2023-01-08T15:16:09;7.80;99.90
23323;DHT22;11833;52.554;13.554;2023-01-08T15:18:42;7.80;99.90
23323;DHT22;11833;52.554;13.554;2023-01-08T15:21:14;7.80;99.90
23323;DHT22;11833;52.554;13.554;2023-01-08T15:23:47;7.80;99.90
23323;DHT22;11833;52.554;13.554;2023-01-08T15:26:15;7.90;99.90
23323;DHT22;11833;52.554;13.554;2023-01-08T15:29:01;7.90;99.90
23323;DHT22;11833;52.554;13.554;2023-01-08T15:31:43;7.90;99.90
23323;DHT22;11833;52.554;13.554;2023-01-08T15:34:10;7.80;99.90
23323;DHT22;11833;52.554;13.554;2023-01-08T15:36:36;7.80;99.90
23323;DHT22;11833;52.554;13.554;2023-01-08T15:39:04;7.80;99.90
23323;DHT22;11833;52.554;13.554;2023-01-08T15:41:35;7.80;99.90
23323;DHT22;11833;52.554;13.554;2023-01-08T15:44:21;7.80;99.90
23323;DHT22;11833;52.554;13.554;2023-01-08T15:46:48;7.80;99.90
23323;DHT22;11833;52.554;13.554;2023-01-08T15:49:13;7.80;99.90
23323;DHT22;11833;52.554;13.554;2023-01-08T15:51:51;7.80;99.90
23323;DHT22;11833;52.554;13.554;2023-01-08T15:54:18;7.70;99.90
23323;DHT22;11833;52.554;13.554;2023-01-08T15:56:45;7.70;99.90
23323;DHT22;11833;52.554;13.554;2023-01-08T15:59:11;7.70;99.90
23323;DHT22;11833;52.554;13.554;2023-01-08T16:01:37;7.70;99.90
23323;DHT22;11833;52.554;13.554;2023-01-08T16:04:03;7.80;99.90
23323;DHT22;11833;52.554;13.554;2023-01-08T16:06:29;7.80;99.90
23323;DHT22;11833;52.554;13.554;2023-01-08T16:08:55;7.90;99.90
23323;DHT22;11833;52.554;13.554;2023-01-08T16:11:24;7.90;99.90
23323;DHT22;11833;52.554;13.554;2023-01-08T16:13:50;7.90;99.90
23323;DHT22;11833;52.554;13.554;2023-01-08T16:16:16;7.90;99.90
23323;DHT22;11833;52.554;13.554;2023-01-08T16:18:42;7.80;99.90
23323;DHT22;11833;52.554;13.554;2023-01-08T16:21:09;7.90;99.90
23323;DHT22;11833;52.554;13.554;2023-01-08T16:23:36;7.90;99.90
23323;DHT22;11833;52.554;13.554;2023-01-08T16:26:07;7.90;99.90
23323;DHT22;11833;52.554;13.554;2023-01-08T16:28:34;7.90;99.90
23323;DHT22;11833;52.554;13.554;2023-01-08T16:31:00;7.90;99.90
23323;DHT22;11833;52.554;13.554;2023-01-08T16:33:27;8.00;99.90
23323;DHT22;11833;52.554;13.554;2023-01-08T16:35:57;8.00;99.90
23323;DHT22;11833;52.554;13.554;2023-01-08T16:38:24;8.00;99.90
23323;DHT22;11833;52.554;13.554;2023-01-08T16:40:51;7.90;99.90
23323;DHT22;11833;52.554;13.554;2023-01-08T16:43:17;8.10;99.90
23323;DHT22;11833;52.554;13.554;2023-01-08T16:45:47;8.10;99.90
23323;DHT22;11833;52.554;13.554;2023-01-08T16:48:13;8.00;99.90
23323;DHT22;11833;52.554;13.554;2023-01-08T16:50:40;8.10;99.90
23323;DHT22;11833;52.554;13.554;2023-01-08T16:53:06;8.20;99.90
23323;DHT22;11833;52.554;13.554;2023-01-08T16:55:31;8.20;99.90
23323;DHT22;11833;52.554;13.554;2023-01-08T16:57:57;8.10;99.90
23323;DHT22;11833;52.554;13.554;2023-01-08T17:00:23;8.00;99.90
23323;DHT22;11833;52.554;13.554;2023-01-08T17:02:49;8.00;99.90
23323;DHT22;11833;52.554;13.554;2023-01-08T17:05:14;8.10;99.90
23323;DHT22;11833;52.554;13.554;2023-01-08T17:07:41;7.90;99.90
23323;DHT22;11833;52.554;13.554;2023-01-08T17:10:07;7.80;99.90
23323;DHT22;11833;52.554;13.554;2023-01-08T17:12:33;7.90;99.90
23323;DHT22;11833;52.554;13.554;2023-01-08T17:14:59;7.80;99.90
23323;DHT22;11833;52.554;13.554;2023-01-08T17:17:25;7.90;99.90
23323;DHT22;11833;52.554;13.554;2023-01-08T17:19:50;7.80;99.90
23323;DHT22;11833;52.554;13.554;2023-01-08T17:22:16;8.00;99.90
23323;DHT22;11833;52.554;13.554;2023-01-08T17:24:42;7.80;99.90
23323;DHT22;11833;52.554;13.554;2023-01-08T17:27:07;7.80;99.90
23323;DHT22;11833;52.554;13.554;2023-01-08T17:29:35;7.80;99.90
23323;DHT22;11833;52.554;13.554;2023-01-08T17:32:01;7.70;99.90
23323;DHT22;11833;52.554;13.554;2023-01-08T17:34:27;7.80;99.90
23323;DHT22;11833;52.554;13.554;2023-01-08T17:36:52;7.80;99.90
23323;DHT22;11833;52.554;13.554;2023-01-08T17:39:18;7.70;99.90
23323;DHT22;11833;52.554;13.554;2023-01-08T17:41:44;7.70;99.90
23323;DHT22;11833;52.554;13.554;2023-01-08T17:44:28;7.70;99.90
23323;DHT22;11833;52.554;13.554;2023-01-08T17:46:55;7.70;99.90
23323;DHT22;11833;52.554;13.554;2023-01-08T17:49:21;7.70;99.90
23323;DHT22;11833;52.554;13.554;2023-01-08T17:51:47;7.60;99.90
23323;DHT22;11833;52.554;13.554;2023-01-08T17:54:14;7.40;99.90
23323;DHT22;11833;52.554;13.554;2023-01-08T17:56:41;7.40;99.90
23323;DHT22;11833;52.554;13.554;2023-01-08T17:59:13;7.50;99.90
23323;DHT22;11833;52.554;13.554;2023-01-08T18:01:40;7.60;99.90
23323;DHT22;11833;52.554;13.554;2023-01-08T18:04:06;7.40;99.90
23323;DHT22;11833;52.554;13.554;2023-01-08T18:06:32;7.30;99.90
23323;DHT22;11833;52.554;13.554;2023-01-08T18:08:57;7.30;99.90
23323;DHT22;11833;52.554;13.554;2023-01-08T18:11:24;7.30;99.90
23323;DHT22;11833;52.554;13.554;2023-01-08T18:13:54;7.30;99.90
23323;DHT22;11833;52.554;13.554;2023-01-08T18:16:24;7.40;99.90
23323;DHT22;11833;52.554;13.554;2023-01-08T18:18:50;7.50;99.90
23323;DHT22;11833;52.554;13.554;2023-01-08T18:21:16;7.60;99.90
23323;DHT22;11833;52.554;13.554;2023-01-08T18:23:42;7.50;99.90
23323;DHT22;11833;52.554;13.554;2023-01-08T18:26:08;7.40;99.90
23323;DHT22;11833;52.554;13.554;2023-01-08T18:28:35;7.40;99.90